aviador You're here:

KMAI Decoded Metar

MARIANNA in FL, USA
Report Time2017-09-26 02:53:00
UTC Time2017-09-26 03:46:34
Flight Rules vfr VFR
Wind220° at 03 kt
W.Decomp.*RWY 26: 2.4 kt HW 1.8 kt LCW
RWY 18: 2.2 kt HW 2.0 kt RCW
W.Rank220° ranks 9
Current wind is below 220° avg. (6.5)
Visibility9999 m
Phenomena:N/A
Clouds:N/A
Expected CloudBase > 800 ft AGL from Temp-Dew spread
CeilingNone
Temp24°C (ISA +9)
Dew Point22°C (89% RH)
QNH1013 hPa
Density Alt1,522 ft
Elevation105 ft
Report Wrong Elevation
Raw Report
KMAI 260253Z AUTO 22003KT 10SM CLR 24/22 A2990 RMK AO2 SLP124
T02390217 53015=

Extra information for KMAI:More info

Metar Taf Metar & Taf Last 4 Metars F.Rules Stats Wind Profile Meteogram Temp Stats Airport Information Weather charts Add Link Nearby VenuesMetar ALERT Operation Metar Decoded Social comments

AIRNAV info for KMAI